Terminal Aerodrome Forecast
Issued by NWS Portland, OR

Home | Current Version | Previous Version | Text Only | Print | Product List | Glossary On
Versions: 1 2 3 4 5 6 7 8 9 10 11 12 13 14 15 16 17 18 19 20 21 22 23 24 25 26 27 28 29 30
000
FTUS46 KPQR 221720
TAFEUG
TAF
KEUG 221720Z 2218/2318 22006KT P6SM BKN050
     FM222000 27006KT P6SM SCT050
     FM222300 31010KT P6SM SCT120
     FM230500 VRB03KT P6SM SCT120
     FM231100 VRB03KT P6SM BKN025=

USA.gov is the U.S. government's official web portal to all federal, state and local government web resources and services.